createdAt,value
2022-10-17T00:01:21.965Z,101022.16
2022-10-17T00:03:50.090Z,101027.71
2022-10-17T00:06:18.126Z,101024.45
2022-10-17T00:08:46.544Z,101028.95
2022-10-17T00:11:18.744Z,101036.34
2022-10-17T00:13:49.653Z,101042.92
2022-10-17T00:16:29.601Z,101042.69
2022-10-17T00:18:59.850Z,101045.81
2022-10-17T00:21:27.881Z,101052.39
2022-10-17T00:23:55.863Z,101052.44
2022-10-17T00:26:24.456Z,101041.33
2022-10-17T00:28:53.353Z,101050.58
2022-10-17T00:31:23.990Z,101053.94
2022-10-17T00:33:52.910Z,101053.31
2022-10-17T00:36:25.022Z,101054.59
2022-10-17T00:38:58.696Z,101053.93
2022-10-17T00:41:33.503Z,101052.70
2022-10-17T00:44:29.680Z,101058.73
2022-10-17T00:46:58.475Z,101063.38
2022-10-17T00:49:28.957Z,101063.64
2022-10-17T00:52:00.884Z,101060.45
2022-10-17T00:54:36.060Z,101062.44
2022-10-17T00:57:04.653Z,101061.89
2022-10-17T00:59:36.173Z,101060.59
2022-10-17T01:02:10.144Z,101060.41
2022-10-17T01:04:40.600Z,101064.23
2022-10-17T01:07:09.398Z,101063.72
2022-10-17T01:09:38.257Z,101063.67
2022-10-17T01:12:06.202Z,101065.88
2022-10-17T01:14:48.185Z,101068.38
2022-10-17T01:17:30.122Z,101057.58
2022-10-17T01:20:06.088Z,101056.02
2022-10-17T01:23:12.828Z,101065.32
2022-10-17T01:25:41.158Z,101070.02
2022-10-17T01:28:55.766Z,101069.48
2022-10-17T01:31:54.220Z,101071.15
2022-10-17T01:34:39.857Z,101066.29
2022-10-17T01:37:31.696Z,101062.31
2022-10-17T01:39:59.648Z,101043.33
2022-10-17T01:42:37.910Z,101054.30
2022-10-17T01:45:25.812Z,101049.75
2022-10-17T01:47:57.683Z,101047.80
2022-10-17T01:50:34.173Z,101047.06
2022-10-17T01:53:11.871Z,101047.95
2022-10-17T01:55:45.322Z,101041.16
2022-10-17T01:58:19.856Z,101038.59
2022-10-17T02:00:49.813Z,101034.04
2022-10-17T02:03:21.186Z,101032.59
2022-10-17T02:05:49.546Z,101032.96
2022-10-17T02:08:56.010Z,101042.80
2022-10-17T02:11:28.165Z,101044.92
2022-10-17T02:14:19.074Z,101054.20
2022-10-17T02:16:52.935Z,101061.14
2022-10-17T02:19:58.046Z,101062.46
2022-10-17T02:22:43.342Z,101062.77
2022-10-17T02:25:18.227Z,101063.38
2022-10-17T02:28:21.150Z,101066.94
2022-10-17T02:30:58.529Z,101064.73
2022-10-17T02:33:35.665Z,101067.23
2022-10-17T02:36:09.762Z,101070.76
2022-10-17T02:38:39.447Z,101076.20
2022-10-17T02:41:12.792Z,101078.17
2022-10-17T02:43:43.521Z,101078.09
2022-10-17T02:46:21.320Z,101080.52
2022-10-17T02:48:59.707Z,101081.07
2022-10-17T02:51:41.986Z,101086.13
2022-10-17T02:54:19.071Z,101087.17
2022-10-17T02:57:20.788Z,101083.51
2022-10-17T02:59:50.343Z,101081.77
2022-10-17T03:02:18.577Z,101086.13
2022-10-17T03:04:47.855Z,101085.78
2022-10-17T03:07:17.111Z,101087.34
2022-10-17T03:09:45.162Z,101084.90
2022-10-17T03:12:13.318Z,101082.79
2022-10-17T03:14:42.142Z,101083.70
2022-10-17T03:17:10.119Z,101087.65
2022-10-17T03:19:38.127Z,101091.70
2022-10-17T03:22:06.315Z,101095.51
2022-10-17T03:24:35.358Z,101093.50
2022-10-17T03:27:03.939Z,101094.90
2022-10-17T03:29:32.067Z,101092.27
2022-10-17T03:32:00.127Z,101092.73
2022-10-17T03:34:28.208Z,101094.56
2022-10-17T03:36:56.520Z,101094.16
2022-10-17T03:39:25.046Z,101093.12
2022-10-17T03:41:53.272Z,101093.55
2022-10-17T03:44:21.600Z,101095.11
2022-10-17T03:46:49.918Z,101102.39
2022-10-17T03:49:17.931Z,101105.63
2022-10-17T03:51:46.025Z,101108.27
2022-10-17T03:54:15.902Z,101106.14
2022-10-17T03:56:44.037Z,101114.23
2022-10-17T03:59:15.912Z,101118.33
2022-10-17T04:01:48.789Z,101119.21
2022-10-17T04:04:18.501Z,101118.38
2022-10-17T04:06:46.463Z,101121.66
2022-10-17T04:09:15.266Z,101120.15
2022-10-17T04:11:50.020Z,101115.45
2022-10-17T04:14:18.359Z,101115.88
2022-10-17T04:16:46.891Z,101115.21
2022-10-17T04:19:18.418Z,101116.58
2022-10-17T04:21:47.864Z,101118.82
2022-10-17T04:24:16.747Z,101117.67
2022-10-17T04:26:51.036Z,101115.15
2022-10-17T04:29:19.413Z,101115.95
2022-10-17T04:31:50.060Z,101111.77
2022-10-17T04:34:21.689Z,101114.89
2022-10-17T04:36:51.949Z,101115.46
2022-10-17T04:39:20.396Z,101117.33
2022-10-17T04:41:48.632Z,101121.98
2022-10-17T04:44:16.796Z,101121.92
2022-10-17T04:46:49.117Z,101120.65
2022-10-17T04:49:17.167Z,101120.73
2022-10-17T04:51:47.260Z,101120.25
2022-10-17T04:54:26.183Z,101126.30
2022-10-17T04:56:59.903Z,101120.89
2022-10-17T04:59:29.211Z,101120.98
2022-10-17T05:02:06.438Z,101120.30
2022-10-17T05:04:34.751Z,101125.52
2022-10-17T05:07:03.646Z,101122.77
2022-10-17T05:09:43.113Z,101122.70
2022-10-17T05:12:11.543Z,101125.72
2022-10-17T05:14:41.876Z,101126.15
2022-10-17T05:17:11.076Z,101130.90
2022-10-17T05:19:40.025Z,101131.55
2022-10-17T05:22:09.585Z,101133.38
2022-10-17T05:24:39.053Z,101138.45
2022-10-17T05:27:08.115Z,101136.39
2022-10-17T05:29:36.675Z,101140.05
2022-10-17T05:32:11.246Z,101143.38
2022-10-17T05:34:39.531Z,101145.41
2022-10-17T05:37:07.735Z,101141.34
2022-10-17T05:39:36.309Z,101155.41
2022-10-17T05:42:05.136Z,101156.45
2022-10-17T05:44:34.445Z,101159.61
2022-10-17T05:47:02.773Z,101161.15
2022-10-17T05:49:43.550Z,101172.44
2022-10-17T05:52:14.982Z,101176.68
2022-10-17T05:55:05.117Z,101180.66
2022-10-17T05:57:33.199Z,101181.42
2022-10-17T06:00:01.839Z,101179.89
2022-10-17T06:02:46.201Z,101179.66
2022-10-17T06:05:16.438Z,101185.23
2022-10-17T06:07:44.833Z,101188.27
2022-10-17T06:10:16.516Z,101190.61
2022-10-17T06:12:45.767Z,101192.81
2022-10-17T06:15:13.886Z,101193.90
2022-10-17T06:17:45.291Z,101184.68
2022-10-17T06:20:14.176Z,101195.26
2022-10-17T06:22:43.604Z,101192.71
2022-10-17T06:25:16.955Z,101197.13
2022-10-17T06:27:47.343Z,101199.21
2022-10-17T06:30:15.656Z,101200.20
2022-10-17T06:32:44.464Z,101199.09
2022-10-17T06:35:13.081Z,101200.14
2022-10-17T06:37:42.197Z,101194.95
2022-10-17T06:40:13.342Z,101201.92
2022-10-17T06:42:41.733Z,101202.83
2022-10-17T06:45:26.112Z,101203.67
2022-10-17T06:48:15.909Z,101204.95
2022-10-17T06:50:46.667Z,101212.54
2022-10-17T06:53:22.170Z,101211.17
2022-10-17T06:56:10.466Z,101213.92
2022-10-17T06:59:10.011Z,101219.80
2022-10-17T07:01:43.096Z,101223.98
2022-10-17T07:04:15.929Z,101222.98
2022-10-17T07:06:44.817Z,101224.84
2022-10-17T07:09:17.700Z,101229.31
2022-10-17T07:11:47.884Z,101226.09
2022-10-17T07:14:19.831Z,101230.55
2022-10-17T07:16:50.306Z,101233.95
2022-10-17T07:19:25.665Z,101234.33
2022-10-17T07:21:55.068Z,101232.14
2022-10-17T07:24:24.164Z,101234.39
2022-10-17T07:27:05.524Z,101234.07
2022-10-17T07:29:34.649Z,101239.34
2022-10-17T07:32:09.625Z,101243.84
2022-10-17T07:34:39.488Z,101241.36
2022-10-17T07:37:11.010Z,101243.25
2022-10-17T07:39:42.475Z,101244.44
2022-10-17T07:42:12.111Z,101245.31
2022-10-17T07:44:40.586Z,101245.67
2022-10-17T07:47:08.991Z,101247.23
2022-10-17T07:49:42.809Z,101242.60
2022-10-17T07:52:12.800Z,101244.81
2022-10-17T07:54:41.729Z,101246.08
2022-10-17T07:57:10.449Z,101247.52
2022-10-17T07:59:40.397Z,101250.08
2022-10-17T08:02:32.207Z,101247.91
2022-10-17T08:05:00.581Z,101248.98
2022-10-17T08:07:30.734Z,101244.61
2022-10-17T08:09:59.000Z,101250.08
2022-10-17T08:12:27.629Z,101247.30
2022-10-17T08:14:56.148Z,101246.57
2022-10-17T08:17:26.369Z,101249.44
2022-10-17T08:19:54.558Z,101248.39
2022-10-17T08:22:23.049Z,101251.41
2022-10-17T08:24:51.219Z,101255.13
2022-10-17T08:27:24.252Z,101255.14
2022-10-17T08:29:53.674Z,101254.80
2022-10-17T08:32:28.625Z,101251.48
2022-10-17T08:34:58.152Z,101244.22
2022-10-17T08:37:27.101Z,101238.63
2022-10-17T08:39:56.242Z,101246.52
2022-10-17T08:42:41.146Z,101242.08
2022-10-17T08:45:56.085Z,101237.67
2022-10-17T08:48:26.331Z,101241.95
2022-10-17T08:51:02.831Z,101245.42
2022-10-17T08:53:39.097Z,101245.63
2022-10-17T08:56:47.663Z,101242.33
2022-10-17T08:59:20.530Z,101240.87
2022-10-17T09:02:05.055Z,101234.34
2022-10-17T09:04:53.047Z,101238.19
2022-10-17T09:07:59.639Z,101235.77
2022-10-17T09:10:37.292Z,101237.89
2022-10-17T09:13:14.913Z,101236.95
2022-10-17T09:15:50.726Z,101232.91
2022-10-17T09:18:36.758Z,101234.33
2022-10-17T09:21:18.686Z,101229.80
2022-10-17T09:24:09.033Z,101233.91
2022-10-17T09:26:41.145Z,101233.92
2022-10-17T09:29:23.041Z,101230.73
2022-10-17T09:32:05.342Z,101224.89
2022-10-17T09:34:33.851Z,101226.66
2022-10-17T09:37:03.152Z,101223.30
2022-10-17T09:39:33.095Z,101220.54
2022-10-17T09:42:03.939Z,101214.20
2022-10-17T09:44:34.146Z,101225.42
2022-10-17T09:47:24.290Z,101231.20
2022-10-17T09:49:53.236Z,101214.44
2022-10-17T09:52:41.222Z,101226.30
2022-10-17T09:55:20.613Z,101227.65
2022-10-17T09:58:00.781Z,101212.66
2022-10-17T10:00:38.470Z,101224.98
2022-10-17T10:03:13.759Z,101228.38
2022-10-17T10:05:44.245Z,101225.05
2022-10-17T10:08:19.204Z,101227.87
2022-10-17T10:10:58.740Z,101233.80
2022-10-17T10:13:27.705Z,101233.58
2022-10-17T10:16:15.159Z,101228.38
2022-10-17T10:18:45.471Z,101225.39
2022-10-17T10:21:20.416Z,101224.83
2022-10-17T10:24:10.292Z,101223.37
2022-10-17T10:26:46.077Z,101229.11
2022-10-17T10:29:27.110Z,101231.67
2022-10-17T10:31:56.095Z,101233.60
2022-10-17T10:34:30.493Z,101234.76
2022-10-17T10:37:17.130Z,101228.25
2022-10-17T10:39:52.179Z,101227.63
2022-10-17T10:42:31.275Z,101220.15
2022-10-17T10:48:36.837Z,101214.65
2022-10-17T10:51:19.743Z,101211.28
2022-10-17T10:54:14.367Z,101212.59
2022-10-17T10:56:49.786Z,101200.99
2022-10-17T10:59:33.425Z,101209.38
2022-10-17T11:02:31.592Z,101208.09
2022-10-17T11:05:07.113Z,101205.50
2022-10-17T11:07:41.416Z,101203.02
2022-10-17T11:10:19.331Z,101200.48
2022-10-17T11:13:05.358Z,101193.29
2022-10-17T11:15:51.716Z,101197.58
2022-10-17T11:18:39.707Z,101197.42
2022-10-17T11:21:16.708Z,101195.98
2022-10-17T11:23:48.785Z,101195.11
2022-10-17T11:26:26.978Z,101195.20
2022-10-17T11:29:02.182Z,101192.21
2022-10-17T11:31:53.473Z,101190.38
2022-10-17T11:34:27.249Z,101182.64
2022-10-17T11:37:04.805Z,101183.66
2022-10-17T11:39:49.436Z,101179.36
2022-10-17T11:42:24.869Z,101175.94
2022-10-17T11:45:00.904Z,101175.52
2022-10-17T11:47:40.009Z,101170.11
2022-10-17T11:53:19.267Z,101166.57
2022-10-17T11:55:51.171Z,101164.70
2022-10-17T11:58:25.531Z,101165.02
2022-10-17T12:01:06.116Z,101166.99
2022-10-17T12:04:12.852Z,101159.67
2022-10-17T12:07:04.994Z,101154.11
2022-10-17T12:09:45.500Z,101148.81
2022-10-17T12:12:31.639Z,101152.21
2022-10-17T12:15:23.570Z,101149.35
2022-10-17T12:18:03.349Z,101150.45
2022-10-17T12:20:36.866Z,101149.23
2022-10-17T12:23:11.008Z,101147.91
2022-10-17T12:25:52.884Z,101146.96
2022-10-17T12:32:15.593Z,101149.89
2022-10-17T12:34:54.421Z,101144.61
2022-10-17T12:37:57.382Z,101143.58
2022-10-17T12:40:36.903Z,101141.94
2022-10-17T12:43:13.805Z,101137.95
2022-10-17T12:45:51.820Z,101139.54
2022-10-17T12:48:35.246Z,101139.87
2022-10-17T12:54:12.512Z,101135.30
2022-10-17T12:56:49.011Z,101134.27
2022-10-17T12:59:23.825Z,101140.21
2022-10-17T13:02:00.192Z,101138.88
2022-10-17T13:04:32.109Z,101138.98
2022-10-17T13:07:01.541Z,101138.46
2022-10-17T13:09:39.458Z,101142.66
2022-10-17T13:12:18.604Z,101141.16
2022-10-17T13:14:48.193Z,101139.05
2022-10-17T13:17:24.155Z,101138.14
2022-10-17T13:19:53.338Z,101140.37
2022-10-17T13:22:25.122Z,101137.19
2022-10-17T13:25:08.762Z,101130.45
2022-10-17T13:27:37.945Z,101122.11
2022-10-17T13:30:34.116Z,101121.99
2022-10-17T13:33:03.500Z,101116.84
2022-10-17T13:35:59.034Z,101117.31
2022-10-17T13:38:29.193Z,101116.64
2022-10-17T13:41:10.833Z,101116.67
2022-10-17T13:43:46.561Z,101120.45
2022-10-17T13:46:37.265Z,101119.86
2022-10-17T13:49:32.357Z,101121.72
2022-10-17T13:52:02.362Z,101122.98
2022-10-17T13:54:45.469Z,101123.92
2022-10-17T13:57:21.757Z,101126.35
2022-10-17T13:59:57.325Z,101124.94
2022-10-17T14:02:28.454Z,101120.64
2022-10-17T14:05:16.724Z,101118.95
2022-10-17T14:08:15.071Z,101113.09
2022-10-17T14:10:45.127Z,101109.10
2022-10-17T14:13:25.919Z,101104.64
2022-10-17T14:15:56.914Z,101101.02
2022-10-17T14:18:34.868Z,101100.16
2022-10-17T14:24:14.155Z,101104.62
2022-10-17T14:27:28.314Z,101107.85
2022-10-17T14:30:03.944Z,101106.70
2022-10-17T14:32:35.042Z,101105.67
2022-10-17T14:35:30.297Z,101108.60
2022-10-17T14:37:59.162Z,101106.11
2022-10-17T14:40:30.027Z,101107.12
2022-10-17T14:43:04.174Z,101109.63
2022-10-17T14:45:38.416Z,101110.21
2022-10-17T14:48:15.646Z,101111.76
2022-10-17T14:51:12.105Z,101109.80
2022-10-17T14:53:43.190Z,101105.95
2022-10-17T14:56:26.821Z,101104.39
2022-10-17T14:58:56.129Z,101103.20
2022-10-17T15:01:24.750Z,101104.18
2022-10-17T15:03:54.348Z,101102.64
2022-10-17T15:06:28.471Z,101099.58
2022-10-17T15:08:57.928Z,101098.66
2022-10-17T15:11:27.066Z,101098.31
2022-10-17T15:13:55.647Z,101099.92
2022-10-17T15:16:27.714Z,101092.87
2022-10-17T15:18:56.433Z,101090.34
2022-10-17T15:21:38.409Z,101089.09
2022-10-17T15:24:15.108Z,101090.15
2022-10-17T15:26:46.137Z,101088.36
2022-10-17T15:29:16.338Z,101087.35
2022-10-17T15:31:44.715Z,101085.52
2022-10-17T15:34:14.237Z,101086.51
2022-10-17T15:36:50.020Z,101088.33
2022-10-17T15:39:18.211Z,101087.80
2022-10-17T15:41:48.286Z,101087.27
2022-10-17T15:44:17.202Z,101091.20
2022-10-17T15:46:45.586Z,101096.12
2022-10-17T15:49:17.705Z,101097.33
2022-10-17T15:51:50.331Z,101092.61
2022-10-17T15:54:20.149Z,101091.54
2022-10-17T15:56:56.221Z,101082.23
2022-10-17T15:59:32.547Z,101092.02
2022-10-17T16:02:02.473Z,101092.90
2022-10-17T16:04:32.877Z,101095.59
2022-10-17T16:07:03.066Z,101100.16
2022-10-17T16:09:32.803Z,101104.01
2022-10-17T16:12:03.058Z,101099.07
2022-10-17T16:14:35.784Z,101103.86
2022-10-17T16:17:07.970Z,101108.49
2022-10-17T16:19:43.895Z,101105.45
2022-10-17T16:22:29.238Z,101105.67
2022-10-17T16:25:09.207Z,101103.98
2022-10-17T16:27:39.948Z,101109.73
2022-10-17T16:30:13.480Z,101106.54
2022-10-17T16:32:48.043Z,101107.30
2022-10-17T16:35:30.638Z,101108.39
2022-10-17T16:38:03.790Z,101111.66
2022-10-17T16:40:41.473Z,101105.27
2022-10-17T16:43:16.414Z,101107.46
2022-10-17T16:45:54.709Z,101106.06
2022-10-17T16:48:29.804Z,101109.96
2022-10-17T16:51:05.910Z,101105.08
2022-10-17T16:53:47.112Z,101104.21
2022-10-17T16:56:24.067Z,101107.88
2022-10-17T16:58:54.621Z,101107.75
2022-10-17T17:01:26.852Z,101111.94
2022-10-17T17:04:03.171Z,101107.95
2022-10-17T17:06:38.030Z,101109.33
2022-10-17T17:09:11.646Z,101112.13
2022-10-17T17:11:44.793Z,101114.45
2022-10-17T17:14:14.094Z,101112.86
2022-10-17T17:16:43.898Z,101114.15
2022-10-17T17:19:17.631Z,101109.89
2022-10-17T17:21:52.493Z,101110.70
2022-10-17T17:24:23.499Z,101113.69
2022-10-17T17:26:55.139Z,101110.93
2022-10-17T17:29:25.450Z,101112.20
2022-10-17T17:31:54.191Z,101113.26
2022-10-17T17:34:25.205Z,101113.88
2022-10-17T17:36:55.623Z,101118.33
2022-10-17T17:39:24.973Z,101121.34
2022-10-17T17:41:57.288Z,101126.29
2022-10-17T17:44:29.527Z,101130.28
2022-10-17T17:46:58.235Z,101130.92
2022-10-17T17:49:29.163Z,101132.30
2022-10-17T17:52:06.178Z,101130.13
2022-10-17T17:54:45.017Z,101126.52
2022-10-17T17:57:19.125Z,101130.98
2022-10-17T17:59:50.258Z,101130.04
2022-10-17T18:02:25.626Z,101129.11
2022-10-17T18:04:59.792Z,101128.11
2022-10-17T18:07:31.048Z,101128.42
2022-10-17T18:10:00.621Z,101135.79
2022-10-17T18:12:32.799Z,101136.48
2022-10-17T18:15:04.945Z,101140.39
2022-10-17T18:17:37.382Z,101133.22
2022-10-17T18:20:09.524Z,101138.16
2022-10-17T18:22:39.455Z,101144.83
2022-10-17T18:25:10.257Z,101142.25
2022-10-17T18:27:41.057Z,101140.09
2022-10-17T18:30:11.382Z,101140.08
2022-10-17T18:32:40.910Z,101132.77
2022-10-17T18:35:10.422Z,101140.97
2022-10-17T18:37:39.312Z,101140.78
2022-10-17T18:40:09.217Z,101141.02
2022-10-17T18:42:38.905Z,101145.02
2022-10-17T18:45:12.543Z,101154.23
2022-10-17T18:47:47.516Z,101150.92
2022-10-17T18:50:16.587Z,101150.47
2022-10-17T18:52:49.686Z,101146.17
2022-10-17T18:55:21.008Z,101148.61
2022-10-17T18:57:51.173Z,101150.35
2022-10-17T19:00:20.780Z,101152.95
2022-10-17T19:02:49.867Z,101149.40
2022-10-17T19:05:18.545Z,101149.41
2022-10-17T19:07:47.664Z,101150.55
2022-10-17T19:10:17.832Z,101147.54
2022-10-17T19:12:48.050Z,101151.86
2022-10-17T19:15:22.512Z,101154.59
2022-10-17T19:18:02.525Z,101152.95
2022-10-17T19:20:33.872Z,101151.14
2022-10-17T19:23:03.389Z,101153.89
2022-10-17T19:25:34.814Z,101147.41
2022-10-17T19:28:03.414Z,101152.11
2022-10-17T19:30:34.254Z,101155.29
2022-10-17T19:33:03.860Z,101155.58
2022-10-17T19:35:39.654Z,101150.73
2022-10-17T19:38:14.252Z,101152.68
2022-10-17T19:40:44.199Z,101147.70
2022-10-17T19:43:15.451Z,101145.77
2022-10-17T19:45:45.612Z,101148.98
2022-10-17T19:48:15.025Z,101151.00
2022-10-17T19:50:45.041Z,101154.59
2022-10-17T19:53:14.154Z,101154.64
2022-10-17T19:55:43.483Z,101155.40
2022-10-17T19:58:12.464Z,101160.49
2022-10-17T20:00:57.202Z,101160.83
2022-10-17T20:03:26.140Z,101157.56
2022-10-17T20:05:55.216Z,101159.89
2022-10-17T20:08:23.478Z,101158.55
2022-10-17T20:10:52.352Z,101156.95
2022-10-17T20:13:21.854Z,101156.90
2022-10-17T20:15:57.813Z,101157.66
2022-10-17T20:18:27.198Z,101155.95
2022-10-17T20:20:55.915Z,101162.38
2022-10-17T20:23:24.150Z,101165.69
2022-10-17T20:26:08.690Z,101167.19
2022-10-17T20:28:50.485Z,101172.16
2022-10-17T20:31:20.027Z,101176.45
2022-10-17T20:33:48.342Z,101174.98
2022-10-17T20:36:17.053Z,101169.83
2022-10-17T20:38:45.370Z,101162.73
2022-10-17T20:41:13.709Z,101162.17
2022-10-17T20:43:42.472Z,101153.30
2022-10-17T20:46:29.520Z,101149.90
2022-10-17T20:49:07.471Z,101155.35
2022-10-17T20:51:36.603Z,101162.20
2022-10-17T20:54:05.568Z,101170.92
2022-10-17T20:56:35.256Z,101183.59
2022-10-17T20:59:07.902Z,101185.02
2022-10-17T21:01:36.606Z,101191.30
2022-10-17T21:06:53.956Z,101189.63
2022-10-17T21:09:22.610Z,101187.14
2022-10-17T21:11:55.338Z,101183.82
2022-10-17T21:14:25.217Z,101176.61
2022-10-17T21:16:53.494Z,101171.63
2022-10-17T21:19:22.055Z,101170.09
2022-10-17T21:21:50.795Z,101173.57
2022-10-17T21:24:20.902Z,101175.11
2022-10-17T21:26:55.616Z,101167.00
2022-10-17T21:29:24.660Z,101164.67
2022-10-17T21:31:53.052Z,101165.52
2022-10-17T21:34:24.781Z,101159.82
2022-10-17T21:36:54.495Z,101163.06
2022-10-17T21:39:25.236Z,101160.65
2022-10-17T21:41:54.410Z,101164.00
2022-10-17T21:44:26.655Z,101164.26
2022-10-17T21:46:56.215Z,101162.81
2022-10-17T21:49:25.787Z,101165.02
2022-10-17T21:51:54.340Z,101166.27
2022-10-17T21:54:23.643Z,101166.30
2022-10-17T21:56:53.125Z,101165.73
2022-10-17T21:59:21.618Z,101161.23
2022-10-17T22:01:50.022Z,101164.94
2022-10-17T22:04:20.211Z,101160.69
2022-10-17T22:06:53.452Z,101162.52
2022-10-17T22:09:25.091Z,101169.88
2022-10-17T22:11:56.615Z,101162.60
2022-10-17T22:14:27.917Z,101169.26
2022-10-17T22:16:56.860Z,101167.98
2022-10-17T22:19:27.558Z,101169.71
2022-10-17T22:21:56.540Z,101167.73
2022-10-17T22:24:25.608Z,101164.50
2022-10-17T22:26:58.152Z,101161.16
2022-10-17T22:29:28.133Z,101155.88
2022-10-17T22:31:56.224Z,101153.80
2022-10-17T22:34:24.568Z,101152.92
2022-10-17T22:36:53.175Z,101150.95
2022-10-17T22:39:21.915Z,101151.63
2022-10-17T22:41:50.122Z,101150.16
2022-10-17T22:44:18.161Z,101145.53
2022-10-17T22:46:46.138Z,101145.95
2022-10-17T22:49:14.311Z,101153.04
2022-10-17T22:51:43.397Z,101153.64
2022-10-17T22:54:11.893Z,101155.08
2022-10-17T22:56:40.307Z,101151.66
2022-10-17T22:59:08.549Z,101158.48
2022-10-17T23:01:36.611Z,101156.73
2022-10-17T23:04:04.751Z,101154.83
2022-10-17T23:06:32.765Z,101156.95
2022-10-17T23:09:00.775Z,101153.79
2022-10-17T23:11:29.392Z,101151.98
2022-10-17T23:13:57.614Z,101149.98
2022-10-17T23:16:25.682Z,101146.19
2022-10-17T23:18:54.450Z,101145.96
2022-10-17T23:21:23.048Z,101148.33
2022-10-17T23:23:51.060Z,101148.05
2022-10-17T23:26:19.019Z,101145.27
2022-10-17T23:28:47.247Z,101142.96
2022-10-17T23:31:18.368Z,101145.95
2022-10-17T23:33:48.275Z,101145.98
2022-10-17T23:36:18.640Z,101145.55
2022-10-17T23:38:48.062Z,101143.70
2022-10-17T23:41:17.109Z,101140.61
2022-10-17T23:43:45.279Z,101140.41
2022-10-17T23:46:13.574Z,101142.34
2022-10-17T23:48:41.961Z,101142.70
2022-10-17T23:51:10.849Z,101138.88
2022-10-17T23:53:40.039Z,101138.20
2022-10-17T23:56:10.274Z,101136.20
2022-10-17T23:58:39.627Z,101136.52
